sensor_id;sensor_type;location;lat;lon;timestamp;P1;durP1;ratioP1;P2;durP2;ratioP2
39728;SDS011;25402;42.004;23.088;2023-02-01T00:01:18;6.35;;;3.53;;
39728;SDS011;25402;42.004;23.088;2023-02-01T00:03:46;6.68;;;3.40;;
39728;SDS011;25402;42.004;23.088;2023-02-01T00:06:12;10.05;;;3.63;;
39728;SDS011;25402;42.004;23.088;2023-02-01T00:08:39;8.63;;;3.65;;
39728;SDS011;25402;42.004;23.088;2023-02-01T00:11:06;9.63;;;3.35;;
39728;SDS011;25402;42.004;23.088;2023-02-01T00:13:34;9.88;;;3.70;;
39728;SDS011;25402;42.004;23.088;2023-02-01T00:16:04;5.65;;;3.50;;
39728;SDS011;25402;42.004;23.088;2023-02-01T00:18:31;11.93;;;3.67;;
39728;SDS011;25402;42.004;23.088;2023-02-01T00:20:58;9.07;;;2.90;;
39728;SDS011;25402;42.004;23.088;2023-02-01T00:23:25;6.55;;;3.00;;
39728;SDS011;25402;42.004;23.088;2023-02-01T00:25:52;10.40;;;3.35;;
39728;SDS011;25402;42.004;23.088;2023-02-01T00:28:18;6.57;;;3.42;;
39728;SDS011;25402;42.004;23.088;2023-02-01T00:30:45;8.23;;;3.50;;
39728;SDS011;25402;42.004;23.088;2023-02-01T00:33:11;7.80;;;3.67;;
39728;SDS011;25402;42.004;23.088;2023-02-01T00:35:38;8.95;;;3.28;;
39728;SDS011;25402;42.004;23.088;2023-02-01T00:38:06;10.07;;;3.08;;
39728;SDS011;25402;42.004;23.088;2023-02-01T00:40:32;8.48;;;3.25;;
39728;SDS011;25402;42.004;23.088;2023-02-01T00:42:59;8.43;;;3.05;;
39728;SDS011;25402;42.004;23.088;2023-02-01T00:45:25;6.97;;;2.90;;
39728;SDS011;25402;42.004;23.088;2023-02-01T00:47:52;7.47;;;3.17;;
39728;SDS011;25402;42.004;23.088;2023-02-01T00:50:18;5.60;;;3.03;;
39728;SDS011;25402;42.004;23.088;2023-02-01T00:52:45;7.30;;;3.40;;
39728;SDS011;25402;42.004;23.088;2023-02-01T00:55:13;7.63;;;2.88;;
39728;SDS011;25402;42.004;23.088;2023-02-01T00:57:39;12.70;;;3.25;;
39728;SDS011;25402;42.004;23.088;2023-02-01T01:00:06;7.55;;;3.50;;
39728;SDS011;25402;42.004;23.088;2023-02-01T01:02:33;10.00;;;4.35;;
39728;SDS011;25402;42.004;23.088;2023-02-01T01:05:00;10.07;;;4.50;;
39728;SDS011;25402;42.004;23.088;2023-02-01T01:07:27;6.55;;;3.30;;
39728;SDS011;25402;42.004;23.088;2023-02-01T01:09:53;7.65;;;3.65;;
39728;SDS011;25402;42.004;23.088;2023-02-01T01:12:21;6.35;;;3.28;;
39728;SDS011;25402;42.004;23.088;2023-02-01T01:14:48;6.05;;;3.20;;
39728;SDS011;25402;42.004;23.088;2023-02-01T01:17:14;5.53;;;3.00;;
39728;SDS011;25402;42.004;23.088;2023-02-01T01:19:41;4.78;;;2.83;;
39728;SDS011;25402;42.004;23.088;2023-02-01T01:22:07;8.82;;;3.08;;
39728;SDS011;25402;42.004;23.088;2023-02-01T01:24:34;6.55;;;2.67;;
39728;SDS011;25402;42.004;23.088;2023-02-01T01:27:00;7.65;;;3.17;;
39728;SDS011;25402;42.004;23.088;2023-02-01T01:29:29;6.57;;;2.90;;
39728;SDS011;25402;42.004;23.088;2023-02-01T01:31:56;5.47;;;2.75;;
39728;SDS011;25402;42.004;23.088;2023-02-01T01:34:22;5.50;;;2.60;;
39728;SDS011;25402;42.004;23.088;2023-02-01T01:36:49;6.25;;;3.20;;
39728;SDS011;25402;42.004;23.088;2023-02-01T01:39:15;4.45;;;2.92;;
39728;SDS011;25402;42.004;23.088;2023-02-01T01:41:42;5.25;;;2.75;;
39728;SDS011;25402;42.004;23.088;2023-02-01T01:46:51;7.20;;;3.53;;
39728;SDS011;25402;42.004;23.088;2023-02-01T01:49:19;6.53;;;3.10;;
39728;SDS011;25402;42.004;23.088;2023-02-01T01:51:47;8.40;;;2.78;;
39728;SDS011;25402;42.004;23.088;2023-02-01T01:54:16;4.50;;;2.80;;
39728;SDS011;25402;42.004;23.088;2023-02-01T01:56:43;10.25;;;3.25;;
39728;SDS011;25402;42.004;23.088;2023-02-01T01:59:12;4.43;;;2.95;;
39728;SDS011;25402;42.004;23.088;2023-02-01T02:01:38;5.43;;;2.90;;
39728;SDS011;25402;42.004;23.088;2023-02-01T02:04:06;4.95;;;3.10;;
39728;SDS011;25402;42.004;23.088;2023-02-01T02:06:37;5.55;;;2.95;;
39728;SDS011;25402;42.004;23.088;2023-02-01T02:09:05;6.75;;;3.38;;
39728;SDS011;25402;42.004;23.088;2023-02-01T02:11:32;7.10;;;3.92;;
39728;SDS011;25402;42.004;23.088;2023-02-01T02:13:58;7.20;;;4.10;;
39728;SDS011;25402;42.004;23.088;2023-02-01T02:19:27;6.43;;;3.65;;
39728;SDS011;25402;42.004;23.088;2023-02-01T02:22:10;5.22;;;3.17;;
39728;SDS011;25402;42.004;23.088;2023-02-01T02:24:44;6.38;;;3.25;;
39728;SDS011;25402;42.004;23.088;2023-02-01T02:27:22;7.75;;;3.53;;
39728;SDS011;25402;42.004;23.088;2023-02-01T02:32:50;7.82;;;3.60;;
39728;SDS011;25402;42.004;23.088;2023-02-01T02:35:22;6.70;;;3.60;;
39728;SDS011;25402;42.004;23.088;2023-02-01T02:40:20;4.97;;;3.03;;
39728;SDS011;25402;42.004;23.088;2023-02-01T02:42:49;6.18;;;3.72;;
39728;SDS011;25402;42.004;23.088;2023-02-01T02:45:36;5.18;;;3.60;;
39728;SDS011;25402;42.004;23.088;2023-02-01T02:48:22;7.28;;;3.72;;
39728;SDS011;25402;42.004;23.088;2023-02-01T02:50:53;6.75;;;3.33;;
39728;SDS011;25402;42.004;23.088;2023-02-01T02:53:41;6.72;;;3.88;;
39728;SDS011;25402;42.004;23.088;2023-02-01T02:56:30;11.20;;;4.05;;
39728;SDS011;25402;42.004;23.088;2023-02-01T02:59:15;8.00;;;4.72;;
39728;SDS011;25402;42.004;23.088;2023-02-01T03:02:01;9.50;;;4.35;;
39728;SDS011;25402;42.004;23.088;2023-02-01T03:04:45;7.60;;;4.30;;
39728;SDS011;25402;42.004;23.088;2023-02-01T03:07:14;8.38;;;4.00;;
39728;SDS011;25402;42.004;23.088;2023-02-01T03:09:41;7.82;;;4.25;;
39728;SDS011;25402;42.004;23.088;2023-02-01T03:12:11;8.77;;;4.43;;
39728;SDS011;25402;42.004;23.088;2023-02-01T03:14:56;6.80;;;4.22;;
39728;SDS011;25402;42.004;23.088;2023-02-01T03:17:24;7.20;;;4.53;;
39728;SDS011;25402;42.004;23.088;2023-02-01T03:19:53;5.60;;;3.65;;
39728;SDS011;25402;42.004;23.088;2023-02-01T03:22:24;17.17;;;4.60;;
39728;SDS011;25402;42.004;23.088;2023-02-01T03:24:58;8.63;;;4.47;;
39728;SDS011;25402;42.004;23.088;2023-02-01T03:27:27;8.80;;;4.72;;
39728;SDS011;25402;42.004;23.088;2023-02-01T03:29:54;7.85;;;4.97;;
39728;SDS011;25402;42.004;23.088;2023-02-01T03:32:22;7.97;;;4.65;;
39728;SDS011;25402;42.004;23.088;2023-02-01T03:34:49;8.27;;;4.65;;
39728;SDS011;25402;42.004;23.088;2023-02-01T03:37:21;10.88;;;5.03;;
39728;SDS011;25402;42.004;23.088;2023-02-01T03:39:52;10.35;;;5.60;;
39728;SDS011;25402;42.004;23.088;2023-02-01T03:42:20;9.70;;;5.20;;
39728;SDS011;25402;42.004;23.088;2023-02-01T03:44:51;13.13;;;4.97;;
39728;SDS011;25402;42.004;23.088;2023-02-01T03:47:20;10.98;;;5.43;;
39728;SDS011;25402;42.004;23.088;2023-02-01T03:49:49;25.73;;;5.63;;
39728;SDS011;25402;42.004;23.088;2023-02-01T03:52:16;12.43;;;6.25;;
39728;SDS011;25402;42.004;23.088;2023-02-01T03:54:44;10.07;;;5.53;;
39728;SDS011;25402;42.004;23.088;2023-02-01T03:57:13;8.70;;;4.85;;
39728;SDS011;25402;42.004;23.088;2023-02-01T03:59:40;11.20;;;5.60;;
39728;SDS011;25402;42.004;23.088;2023-02-01T04:02:07;14.70;;;6.80;;
39728;SDS011;25402;42.004;23.088;2023-02-01T04:04:33;12.15;;;6.28;;
39728;SDS011;25402;42.004;23.088;2023-02-01T04:07:00;16.55;;;6.05;;
39728;SDS011;25402;42.004;23.088;2023-02-01T04:09:27;13.63;;;5.70;;
39728;SDS011;25402;42.004;23.088;2023-02-01T04:11:53;10.02;;;5.50;;
39728;SDS011;25402;42.004;23.088;2023-02-01T04:14:21;16.15;;;6.20;;
39728;SDS011;25402;42.004;23.088;2023-02-01T04:16:48;19.52;;;6.28;;
39728;SDS011;25402;42.004;23.088;2023-02-01T04:19:14;13.75;;;5.70;;
39728;SDS011;25402;42.004;23.088;2023-02-01T04:21:41;69.45;;;7.28;;
39728;SDS011;25402;42.004;23.088;2023-02-01T04:24:08;20.27;;;5.07;;
39728;SDS011;25402;42.004;23.088;2023-02-01T04:26:35;11.80;;;6.35;;
39728;SDS011;25402;42.004;23.088;2023-02-01T04:29:02;14.98;;;5.85;;
39728;SDS011;25402;42.004;23.088;2023-02-01T04:31:30;14.65;;;6.32;;
39728;SDS011;25402;42.004;23.088;2023-02-01T04:33:56;10.98;;;5.72;;
39728;SDS011;25402;42.004;23.088;2023-02-01T04:36:23;19.67;;;5.30;;
39728;SDS011;25402;42.004;23.088;2023-02-01T04:38:50;8.38;;;4.60;;
39728;SDS011;25402;42.004;23.088;2023-02-01T04:41:17;9.93;;;3.97;;
39728;SDS011;25402;42.004;23.088;2023-02-01T04:43:44;10.20;;;4.28;;
39728;SDS011;25402;42.004;23.088;2023-02-01T04:46:10;15.07;;;4.95;;
39728;SDS011;25402;42.004;23.088;2023-02-01T04:48:38;10.15;;;5.63;;
39728;SDS011;25402;42.004;23.088;2023-02-01T04:51:05;23.23;;;11.55;;
39728;SDS011;25402;42.004;23.088;2023-02-01T04:53:32;39.90;;;17.27;;
39728;SDS011;25402;42.004;23.088;2023-02-01T04:55:58;43.72;;;17.50;;
39728;SDS011;25402;42.004;23.088;2023-02-01T04:58:25;11.20;;;5.88;;
39728;SDS011;25402;42.004;23.088;2023-02-01T05:00:51;17.13;;;7.78;;
39728;SDS011;25402;42.004;23.088;2023-02-01T05:03:18;21.25;;;6.30;;
39728;SDS011;25402;42.004;23.088;2023-02-01T05:05:46;19.13;;;8.07;;
39728;SDS011;25402;42.004;23.088;2023-02-01T05:08:13;11.15;;;6.07;;
39728;SDS011;25402;42.004;23.088;2023-02-01T05:10:39;15.10;;;6.70;;
39728;SDS011;25402;42.004;23.088;2023-02-01T05:13:07;14.38;;;4.32;;
39728;SDS011;25402;42.004;23.088;2023-02-01T05:15:51;11.38;;;4.93;;
39728;SDS011;25402;42.004;23.088;2023-02-01T05:18:17;12.57;;;4.78;;
39728;SDS011;25402;42.004;23.088;2023-02-01T05:20:45;20.45;;;5.25;;
39728;SDS011;25402;42.004;23.088;2023-02-01T05:23:12;12.98;;;3.13;;
39728;SDS011;25402;42.004;23.088;2023-02-01T05:25:38;8.57;;;3.05;;
39728;SDS011;25402;42.004;23.088;2023-02-01T05:28:05;17.95;;;3.60;;
39728;SDS011;25402;42.004;23.088;2023-02-01T05:30:32;18.90;;;4.20;;
39728;SDS011;25402;42.004;23.088;2023-02-01T05:33:00;14.15;;;3.55;;
39728;SDS011;25402;42.004;23.088;2023-02-01T05:35:26;13.13;;;4.15;;
39728;SDS011;25402;42.004;23.088;2023-02-01T05:37:54;12.48;;;4.00;;
39728;SDS011;25402;42.004;23.088;2023-02-01T05:40:21;26.05;;;5.90;;
39728;SDS011;25402;42.004;23.088;2023-02-01T05:42:47;48.08;;;9.13;;
39728;SDS011;25402;42.004;23.088;2023-02-01T05:45:14;29.95;;;6.65;;
39728;SDS011;25402;42.004;23.088;2023-02-01T05:47:40;48.45;;;8.05;;
39728;SDS011;25402;42.004;23.088;2023-02-01T05:50:08;42.03;;;9.52;;
39728;SDS011;25402;42.004;23.088;2023-02-01T05:52:44;40.50;;;10.65;;
39728;SDS011;25402;42.004;23.088;2023-02-01T05:55:25;52.83;;;6.60;;
39728;SDS011;25402;42.004;23.088;2023-02-01T05:57:53;31.88;;;6.25;;
39728;SDS011;25402;42.004;23.088;2023-02-01T06:00:20;22.42;;;4.30;;
39728;SDS011;25402;42.004;23.088;2023-02-01T06:02:47;17.55;;;3.78;;
39728;SDS011;25402;42.004;23.088;2023-02-01T06:05:15;35.42;;;4.35;;
39728;SDS011;25402;42.004;23.088;2023-02-01T06:07:41;19.20;;;4.65;;
39728;SDS011;25402;42.004;23.088;2023-02-01T06:10:09;24.98;;;5.03;;
39728;SDS011;25402;42.004;23.088;2023-02-01T06:12:37;17.35;;;3.60;;
39728;SDS011;25402;42.004;23.088;2023-02-01T06:15:04;10.43;;;3.65;;
39728;SDS011;25402;42.004;23.088;2023-02-01T06:17:31;14.25;;;4.35;;
39728;SDS011;25402;42.004;23.088;2023-02-01T06:19:57;13.13;;;4.10;;
39728;SDS011;25402;42.004;23.088;2023-02-01T06:22:24;15.63;;;3.55;;
39728;SDS011;25402;42.004;23.088;2023-02-01T06:24:50;28.00;;;4.97;;
39728;SDS011;25402;42.004;23.088;2023-02-01T06:27:17;15.90;;;4.20;;
39728;SDS011;25402;42.004;23.088;2023-02-01T06:29:45;25.40;;;4.97;;
39728;SDS011;25402;42.004;23.088;2023-02-01T06:32:11;23.70;;;4.95;;
39728;SDS011;25402;42.004;23.088;2023-02-01T06:34:38;23.52;;;6.22;;
39728;SDS011;25402;42.004;23.088;2023-02-01T06:37:04;25.17;;;5.15;;
39728;SDS011;25402;42.004;23.088;2023-02-01T06:39:31;16.77;;;5.60;;
39728;SDS011;25402;42.004;23.088;2023-02-01T06:41:57;20.85;;;5.88;;
39728;SDS011;25402;42.004;23.088;2023-02-01T06:44:24;19.48;;;5.45;;
39728;SDS011;25402;42.004;23.088;2023-02-01T06:46:52;16.35;;;5.45;;
39728;SDS011;25402;42.004;23.088;2023-02-01T06:49:19;22.70;;;7.13;;
39728;SDS011;25402;42.004;23.088;2023-02-01T06:51:46;16.73;;;6.28;;
39728;SDS011;25402;42.004;23.088;2023-02-01T06:54:13;32.42;;;6.25;;
39728;SDS011;25402;42.004;23.088;2023-02-01T06:56:39;21.60;;;4.13;;
39728;SDS011;25402;42.004;23.088;2023-02-01T06:59:06;8.90;;;3.47;;
39728;SDS011;25402;42.004;23.088;2023-02-01T07:01:33;14.15;;;2.70;;
39728;SDS011;25402;42.004;23.088;2023-02-01T07:04:01;8.40;;;2.40;;
39728;SDS011;25402;42.004;23.088;2023-02-01T07:06:28;15.40;;;2.90;;
39728;SDS011;25402;42.004;23.088;2023-02-01T07:08:55;8.00;;;2.60;;
39728;SDS011;25402;42.004;23.088;2023-02-01T07:11:23;15.02;;;2.80;;
39728;SDS011;25402;42.004;23.088;2023-02-01T07:13:52;8.50;;;3.05;;
39728;SDS011;25402;42.004;23.088;2023-02-01T07:16:19;10.82;;;3.20;;
39728;SDS011;25402;42.004;23.088;2023-02-01T07:18:46;14.57;;;3.92;;
39728;SDS011;25402;42.004;23.088;2023-02-01T07:21:14;30.73;;;4.45;;
39728;SDS011;25402;42.004;23.088;2023-02-01T07:23:40;14.48;;;3.90;;
39728;SDS011;25402;42.004;23.088;2023-02-01T07:26:07;17.67;;;5.25;;
39728;SDS011;25402;42.004;23.088;2023-02-01T07:28:34;10.93;;;3.90;;
39728;SDS011;25402;42.004;23.088;2023-02-01T07:31:02;25.50;;;3.95;;
39728;SDS011;25402;42.004;23.088;2023-02-01T07:33:29;12.70;;;4.43;;
39728;SDS011;25402;42.004;23.088;2023-02-01T07:35:56;17.52;;;4.65;;
39728;SDS011;25402;42.004;23.088;2023-02-01T07:38:24;13.98;;;4.18;;
39728;SDS011;25402;42.004;23.088;2023-02-01T07:40:51;8.25;;;3.22;;
39728;SDS011;25402;42.004;23.088;2023-02-01T07:43:22;15.00;;;2.65;;
39728;SDS011;25402;42.004;23.088;2023-02-01T07:45:50;11.73;;;2.85;;
39728;SDS011;25402;42.004;23.088;2023-02-01T07:48:17;10.27;;;3.42;;
39728;SDS011;25402;42.004;23.088;2023-02-01T07:50:43;11.18;;;3.15;;
39728;SDS011;25402;42.004;23.088;2023-02-01T07:53:10;14.75;;;3.67;;
39728;SDS011;25402;42.004;23.088;2023-02-01T07:55:38;10.13;;;3.13;;
39728;SDS011;25402;42.004;23.088;2023-02-01T07:58:05;33.17;;;4.25;;
39728;SDS011;25402;42.004;23.088;2023-02-01T08:00:33;9.52;;;4.32;;
39728;SDS011;25402;42.004;23.088;2023-02-01T08:03:23;27.58;;;10.45;;
39728;SDS011;25402;42.004;23.088;2023-02-01T08:05:53;44.85;;;19.17;;
39728;SDS011;25402;42.004;23.088;2023-02-01T08:08:20;38.17;;;16.58;;
39728;SDS011;25402;42.004;23.088;2023-02-01T08:10:50;39.20;;;15.75;;
39728;SDS011;25402;42.004;23.088;2023-02-01T08:13:17;41.85;;;13.38;;
39728;SDS011;25402;42.004;23.088;2023-02-01T08:15:44;21.88;;;7.80;;
39728;SDS011;25402;42.004;23.088;2023-02-01T08:18:11;14.75;;;4.35;;
39728;SDS011;25402;42.004;23.088;2023-02-01T08:20:41;18.27;;;3.78;;
39728;SDS011;25402;42.004;23.088;2023-02-01T08:23:10;16.10;;;3.55;;
39728;SDS011;25402;42.004;23.088;2023-02-01T08:25:37;10.05;;;4.00;;
39728;SDS011;25402;42.004;23.088;2023-02-01T08:28:05;18.48;;;5.50;;
39728;SDS011;25402;42.004;23.088;2023-02-01T08:30:32;19.45;;;5.20;;
39728;SDS011;25402;42.004;23.088;2023-02-01T08:32:58;14.95;;;5.28;;
39728;SDS011;25402;42.004;23.088;2023-02-01T08:35:26;15.38;;;4.57;;
39728;SDS011;25402;42.004;23.088;2023-02-01T08:37:52;11.02;;;4.47;;
39728;SDS011;25402;42.004;23.088;2023-02-01T08:40:19;14.57;;;6.43;;
39728;SDS011;25402;42.004;23.088;2023-02-01T08:42:46;10.32;;;4.68;;
39728;SDS011;25402;42.004;23.088;2023-02-01T08:45:21;8.30;;;2.80;;
39728;SDS011;25402;42.004;23.088;2023-02-01T08:47:48;9.43;;;3.30;;
39728;SDS011;25402;42.004;23.088;2023-02-01T08:50:15;13.82;;;2.22;;
39728;SDS011;25402;42.004;23.088;2023-02-01T08:52:42;8.13;;;2.13;;
39728;SDS011;25402;42.004;23.088;2023-02-01T08:55:09;8.20;;;2.75;;
39728;SDS011;25402;42.004;23.088;2023-02-01T08:57:36;21.80;;;3.63;;
39728;SDS011;25402;42.004;23.088;2023-02-01T09:00:04;8.82;;;2.78;;
39728;SDS011;25402;42.004;23.088;2023-02-01T09:02:32;6.57;;;2.50;;
39728;SDS011;25402;42.004;23.088;2023-02-01T09:04:59;14.38;;;2.67;;
39728;SDS011;25402;42.004;23.088;2023-02-01T09:07:25;10.30;;;3.13;;
39728;SDS011;25402;42.004;23.088;2023-02-01T09:09:52;22.88;;;4.13;;
39728;SDS011;25402;42.004;23.088;2023-02-01T09:12:19;19.77;;;4.47;;
39728;SDS011;25402;42.004;23.088;2023-02-01T09:14:46;18.63;;;3.47;;
39728;SDS011;25402;42.004;23.088;2023-02-01T09:17:12;5.90;;;2.40;;
39728;SDS011;25402;42.004;23.088;2023-02-01T09:19:41;10.15;;;2.80;;
39728;SDS011;25402;42.004;23.088;2023-02-01T09:22:07;4.35;;;2.35;;
39728;SDS011;25402;42.004;23.088;2023-02-01T09:24:34;13.63;;;2.78;;
39728;SDS011;25402;42.004;23.088;2023-02-01T09:27:00;21.85;;;3.15;;
39728;SDS011;25402;42.004;23.088;2023-02-01T09:29:27;3.72;;;2.20;;
39728;SDS011;25402;42.004;23.088;2023-02-01T09:31:53;12.07;;;3.33;;
39728;SDS011;25402;42.004;23.088;2023-02-01T09:34:20;12.55;;;3.20;;
39728;SDS011;25402;42.004;23.088;2023-02-01T09:36:49;12.60;;;4.75;;
39728;SDS011;25402;42.004;23.088;2023-02-01T09:39:16;8.68;;;3.10;;
39728;SDS011;25402;42.004;23.088;2023-02-01T09:41:45;9.13;;;3.08;;
39728;SDS011;25402;42.004;23.088;2023-02-01T09:44:18;13.85;;;2.72;;
39728;SDS011;25402;42.004;23.088;2023-02-01T09:46:47;12.73;;;3.50;;
39728;SDS011;25402;42.004;23.088;2023-02-01T09:49:18;11.40;;;3.20;;
39728;SDS011;25402;42.004;23.088;2023-02-01T09:51:47;15.73;;;2.72;;
39728;SDS011;25402;42.004;23.088;2023-02-01T09:54:17;15.93;;;3.05;;
39728;SDS011;25402;42.004;23.088;2023-02-01T09:56:46;31.25;;;4.05;;
39728;SDS011;25402;42.004;23.088;2023-02-01T09:59:18;18.75;;;2.90;;
39728;SDS011;25402;42.004;23.088;2023-02-01T10:01:47;10.23;;;2.47;;
39728;SDS011;25402;42.004;23.088;2023-02-01T10:04:14;20.80;;;5.40;;
39728;SDS011;25402;42.004;23.088;2023-02-01T10:06:45;13.07;;;5.00;;
39728;SDS011;25402;42.004;23.088;2023-02-01T10:09:28;11.65;;;4.35;;
39728;SDS011;25402;42.004;23.088;2023-02-01T10:12:15;19.40;;;8.50;;
39728;SDS011;25402;42.004;23.088;2023-02-01T10:14:52;13.43;;;5.32;;
39728;SDS011;25402;42.004;23.088;2023-02-01T10:17:23;14.38;;;6.32;;
39728;SDS011;25402;42.004;23.088;2023-02-01T10:19:55;14.77;;;6.95;;
39728;SDS011;25402;42.004;23.088;2023-02-01T10:22:29;23.88;;;6.22;;
39728;SDS011;25402;42.004;23.088;2023-02-01T10:25:04;19.33;;;7.97;;
39728;SDS011;25402;42.004;23.088;2023-02-01T10:27:42;11.15;;;4.50;;
39728;SDS011;25402;42.004;23.088;2023-02-01T10:32:40;5.50;;;2.50;;
39728;SDS011;25402;42.004;23.088;2023-02-01T10:35:09;6.15;;;2.33;;
39728;SDS011;25402;42.004;23.088;2023-02-01T10:37:40;15.07;;;3.33;;
39728;SDS011;25402;42.004;23.088;2023-02-01T10:40:12;10.13;;;2.35;;
39728;SDS011;25402;42.004;23.088;2023-02-01T10:45:11;5.47;;;2.10;;
39728;SDS011;25402;42.004;23.088;2023-02-01T10:47:38;19.85;;;2.28;;
39728;SDS011;25402;42.004;23.088;2023-02-01T10:50:09;8.05;;;2.22;;
39728;SDS011;25402;42.004;23.088;2023-02-01T10:52:41;11.95;;;2.80;;
39728;SDS011;25402;42.004;23.088;2023-02-01T10:55:27;18.00;;;3.13;;
39728;SDS011;25402;42.004;23.088;2023-02-01T11:00:20;9.25;;;2.63;;
39728;SDS011;25402;42.004;23.088;2023-02-01T11:02:47;6.38;;;2.10;;
39728;SDS011;25402;42.004;23.088;2023-02-01T11:05:15;10.88;;;2.33;;
39728;SDS011;25402;42.004;23.088;2023-02-01T11:07:46;4.63;;;2.22;;
39728;SDS011;25402;42.004;23.088;2023-02-01T11:10:15;6.80;;;2.30;;
39728;SDS011;25402;42.004;23.088;2023-02-01T11:38:53;21.77;;;2.30;;
39728;SDS011;25402;42.004;23.088;2023-02-01T11:41:22;5.28;;;1.70;;
39728;SDS011;25402;42.004;23.088;2023-02-01T11:43:52;5.68;;;2.40;;
39728;SDS011;25402;42.004;23.088;2023-02-01T11:46:19;4.63;;;1.73;;
39728;SDS011;25402;42.004;23.088;2023-02-01T11:48:50;4.70;;;1.98;;
39728;SDS011;25402;42.004;23.088;2023-02-01T11:51:20;9.35;;;1.50;;
39728;SDS011;25402;42.004;23.088;2023-02-01T11:53:58;8.30;;;2.00;;
39728;SDS011;25402;42.004;23.088;2023-02-01T11:56:30;5.60;;;2.60;;
39728;SDS011;25402;42.004;23.088;2023-02-01T11:59:06;9.00;;;2.95;;
39728;SDS011;25402;42.004;23.088;2023-02-01T12:01:38;16.15;;;4.15;;
39728;SDS011;25402;42.004;23.088;2023-02-01T12:04:13;23.45;;;3.58;;
39728;SDS011;25402;42.004;23.088;2023-02-01T12:06:48;13.63;;;3.10;;
39728;SDS011;25402;42.004;23.088;2023-02-01T12:09:25;12.15;;;3.30;;
39728;SDS011;25402;42.004;23.088;2023-02-01T12:11:58;19.33;;;4.90;;
39728;SDS011;25402;42.004;23.088;2023-02-01T12:14:36;6.93;;;2.00;;
39728;SDS011;25402;42.004;23.088;2023-02-01T12:17:14;12.02;;;2.63;;
39728;SDS011;25402;42.004;23.088;2023-02-01T12:19:50;8.98;;;2.85;;
39728;SDS011;25402;42.004;23.088;2023-02-01T12:22:24;6.57;;;1.77;;
39728;SDS011;25402;42.004;23.088;2023-02-01T12:25:00;7.53;;;1.67;;
39728;SDS011;25402;42.004;23.088;2023-02-01T12:27:37;5.95;;;1.50;;
39728;SDS011;25402;42.004;23.088;2023-02-01T12:30:13;7.75;;;2.10;;
39728;SDS011;25402;42.004;23.088;2023-02-01T12:32:48;6.65;;;1.55;;
39728;SDS011;25402;42.004;23.088;2023-02-01T12:35:22;4.53;;;1.63;;
39728;SDS011;25402;42.004;23.088;2023-02-01T12:37:58;6.05;;;1.65;;
39728;SDS011;25402;42.004;23.088;2023-02-01T12:40:34;7.45;;;1.55;;
39728;SDS011;25402;42.004;23.088;2023-02-01T12:43:08;7.68;;;1.58;;
39728;SDS011;25402;42.004;23.088;2023-02-01T12:45:38;5.90;;;1.63;;
39728;SDS011;25402;42.004;23.088;2023-02-01T12:48:11;4.57;;;1.58;;
39728;SDS011;25402;42.004;23.088;2023-02-01T12:50:43;5.75;;;1.92;;
39728;SDS011;25402;42.004;23.088;2023-02-01T12:53:14;4.30;;;1.92;;
39728;SDS011;25402;42.004;23.088;2023-02-01T12:55:47;9.65;;;1.90;;
39728;SDS011;25402;42.004;23.088;2023-02-01T12:58:17;3.72;;;1.80;;
39728;SDS011;25402;42.004;23.088;2023-02-01T13:00:44;4.63;;;1.70;;
39728;SDS011;25402;42.004;23.088;2023-02-01T13:03:14;6.15;;;1.80;;
39728;SDS011;25402;42.004;23.088;2023-02-01T13:05:45;9.93;;;4.38;;
39728;SDS011;25402;42.004;23.088;2023-02-01T13:08:14;9.38;;;3.53;;
39728;SDS011;25402;42.004;23.088;2023-02-01T13:10:45;8.07;;;2.17;;
39728;SDS011;25402;42.004;23.088;2023-02-01T13:13:16;5.93;;;2.10;;
39728;SDS011;25402;42.004;23.088;2023-02-01T13:15:46;8.27;;;2.63;;
39728;SDS011;25402;42.004;23.088;2023-02-01T13:18:14;5.47;;;2.03;;
39728;SDS011;25402;42.004;23.088;2023-02-01T13:20:45;9.93;;;2.03;;
39728;SDS011;25402;42.004;23.088;2023-02-01T13:23:14;5.22;;;1.98;;
39728;SDS011;25402;42.004;23.088;2023-02-01T13:25:46;11.75;;;2.15;;
39728;SDS011;25402;42.004;23.088;2023-02-01T13:28:16;5.97;;;2.05;;
39728;SDS011;25402;42.004;23.088;2023-02-01T13:31:04;6.53;;;2.10;;
39728;SDS011;25402;42.004;23.088;2023-02-01T13:33:42;4.22;;;2.08;;
39728;SDS011;25402;42.004;23.088;2023-02-01T13:36:18;7.20;;;2.35;;
39728;SDS011;25402;42.004;23.088;2023-02-01T13:41:30;3.83;;;1.95;;
39728;SDS011;25402;42.004;23.088;2023-02-01T13:44:00;6.80;;;2.65;;
39728;SDS011;25402;42.004;23.088;2023-02-01T13:46:28;5.47;;;1.83;;
39728;SDS011;25402;42.004;23.088;2023-02-01T13:48:57;5.20;;;2.00;;
39728;SDS011;25402;42.004;23.088;2023-02-01T13:54:06;9.15;;;2.35;;
39728;SDS011;25402;42.004;23.088;2023-02-01T13:56:41;6.10;;;2.13;;
39728;SDS011;25402;42.004;23.088;2023-02-01T14:01:55;7.22;;;2.25;;
39728;SDS011;25402;42.004;23.088;2023-02-01T14:07:15;9.38;;;2.40;;
39728;SDS011;25402;42.004;23.088;2023-02-01T14:09:43;6.18;;;2.38;;
39728;SDS011;25402;42.004;23.088;2023-02-01T14:14:56;3.70;;;2.03;;
39728;SDS011;25402;42.004;23.088;2023-02-01T14:17:42;7.43;;;1.98;;
39728;SDS011;25402;42.004;23.088;2023-02-01T14:26:09;21.08;;;2.30;;
39728;SDS011;25402;42.004;23.088;2023-02-01T14:28:39;7.88;;;2.63;;
39728;SDS011;25402;42.004;23.088;2023-02-01T14:31:17;13.15;;;2.90;;
39728;SDS011;25402;42.004;23.088;2023-02-01T14:33:46;18.05;;;2.67;;
39728;SDS011;25402;42.004;23.088;2023-02-01T14:36:13;11.23;;;2.80;;
39728;SDS011;25402;42.004;23.088;2023-02-01T14:38:46;20.10;;;3.53;;
39728;SDS011;25402;42.004;23.088;2023-02-01T14:41:30;5.03;;;2.40;;
39728;SDS011;25402;42.004;23.088;2023-02-01T14:44:13;21.58;;;3.83;;
39728;SDS011;25402;42.004;23.088;2023-02-01T14:49:29;23.52;;;3.47;;
39728;SDS011;25402;42.004;23.088;2023-02-01T14:51:57;14.43;;;2.95;;
39728;SDS011;25402;42.004;23.088;2023-02-01T14:56:55;8.60;;;2.08;;
39728;SDS011;25402;42.004;23.088;2023-02-01T14:59:21;15.25;;;2.20;;
39728;SDS011;25402;42.004;23.088;2023-02-01T15:01:50;11.98;;;2.70;;
39728;SDS011;25402;42.004;23.088;2023-02-01T15:04:18;15.48;;;3.60;;
39728;SDS011;25402;42.004;23.088;2023-02-01T15:06:48;15.90;;;3.15;;
39728;SDS011;25402;42.004;23.088;2023-02-01T15:09:17;20.35;;;4.18;;
39728;SDS011;25402;42.004;23.088;2023-02-01T15:11:58;31.60;;;6.00;;
39728;SDS011;25402;42.004;23.088;2023-02-01T15:14:25;28.13;;;5.53;;
39728;SDS011;25402;42.004;23.088;2023-02-01T15:16:52;57.47;;;6.03;;
39728;SDS011;25402;42.004;23.088;2023-02-01T15:19:20;83.55;;;7.80;;
39728;SDS011;25402;42.004;23.088;2023-02-01T15:21:49;61.85;;;7.32;;
39728;SDS011;25402;42.004;23.088;2023-02-01T15:24:20;17.35;;;5.93;;
39728;SDS011;25402;42.004;23.088;2023-02-01T15:26:47;22.95;;;5.75;;
39728;SDS011;25402;42.004;23.088;2023-02-01T15:29:14;25.88;;;4.97;;
39728;SDS011;25402;42.004;23.088;2023-02-01T15:31:42;25.52;;;5.10;;
39728;SDS011;25402;42.004;23.088;2023-02-01T15:34:09;17.58;;;4.93;;
39728;SDS011;25402;42.004;23.088;2023-02-01T15:36:36;24.27;;;4.45;;
39728;SDS011;25402;42.004;23.088;2023-02-01T15:39:15;21.63;;;4.68;;
39728;SDS011;25402;42.004;23.088;2023-02-01T15:41:44;20.40;;;5.15;;
39728;SDS011;25402;42.004;23.088;2023-02-01T15:44:14;25.85;;;7.05;;
39728;SDS011;25402;42.004;23.088;2023-02-01T15:46:44;25.02;;;7.80;;
39728;SDS011;25402;42.004;23.088;2023-02-01T15:49:16;23.30;;;5.65;;